sensor_id;sensor_type;location;lat;lon;timestamp;temperature;humidity
57108;DHT22;42987;52.916;6.542;2023-07-20T00:01:18;15.30;99.90
57108;DHT22;42987;52.916;6.542;2023-07-20T00:03:43;15.30;99.90
57108;DHT22;42987;52.916;6.542;2023-07-20T00:06:09;15.30;99.90
57108;DHT22;42987;52.916;6.542;2023-07-20T00:08:35;15.30;99.90
57108;DHT22;42987;52.916;6.542;2023-07-20T00:11:01;15.30;99.90
57108;DHT22;42987;52.916;6.542;2023-07-20T00:13:28;15.30;99.90
57108;DHT22;42987;52.916;6.542;2023-07-20T00:15:53;15.30;99.90
57108;DHT22;42987;52.916;6.542;2023-07-20T00:18:19;15.30;99.90
57108;DHT22;42987;52.916;6.542;2023-07-20T00:20:47;15.30;99.90
57108;DHT22;42987;52.916;6.542;2023-07-20T00:23:13;15.30;99.90
57108;DHT22;42987;52.916;6.542;2023-07-20T00:25:38;15.40;99.90
57108;DHT22;42987;52.916;6.542;2023-07-20T00:28:04;15.30;99.90
57108;DHT22;42987;52.916;6.542;2023-07-20T00:30:30;15.30;99.90
57108;DHT22;42987;52.916;6.542;2023-07-20T00:32:56;15.30;99.90
57108;DHT22;42987;52.916;6.542;2023-07-20T00:35:21;15.30;99.90
57108;DHT22;42987;52.916;6.542;2023-07-20T00:37:47;15.30;99.90
57108;DHT22;42987;52.916;6.542;2023-07-20T00:40:13;15.40;99.90
57108;DHT22;42987;52.916;6.542;2023-07-20T00:42:39;15.30;99.90
57108;DHT22;42987;52.916;6.542;2023-07-20T00:45:05;15.30;99.90
57108;DHT22;42987;52.916;6.542;2023-07-20T00:47:31;15.30;99.90
57108;DHT22;42987;52.916;6.542;2023-07-20T00:49:58;15.30;99.90
57108;DHT22;42987;52.916;6.542;2023-07-20T00:52:25;15.30;99.90
57108;DHT22;42987;52.916;6.542;2023-07-20T00:54:52;15.20;99.90
57108;DHT22;42987;52.916;6.542;2023-07-20T00:57:22;15.20;99.90
57108;DHT22;42987;52.916;6.542;2023-07-20T00:59:49;15.20;99.90
57108;DHT22;42987;52.916;6.542;2023-07-20T01:02:15;15.20;99.90
57108;DHT22;42987;52.916;6.542;2023-07-20T01:04:41;15.20;99.90
57108;DHT22;42987;52.916;6.542;2023-07-20T01:09:52;15.20;99.90
57108;DHT22;42987;52.916;6.542;2023-07-20T01:12:27;15.10;99.90
57108;DHT22;42987;52.916;6.542;2023-07-20T01:14:56;15.10;99.90
57108;DHT22;42987;52.916;6.542;2023-07-20T01:17:22;15.10;99.90
57108;DHT22;42987;52.916;6.542;2023-07-20T01:19:49;15.00;99.90
57108;DHT22;42987;52.916;6.542;2023-07-20T01:31:19;14.80;99.90
57108;DHT22;42987;52.916;6.542;2023-07-20T01:33:47;14.80;99.90
57108;DHT22;42987;52.916;6.542;2023-07-20T01:36:14;14.80;99.90
57108;DHT22;42987;52.916;6.542;2023-07-20T01:38:42;14.70;99.90
57108;DHT22;42987;52.916;6.542;2023-07-20T01:41:08;14.70;99.90
57108;DHT22;42987;52.916;6.542;2023-07-20T01:43:34;14.60;99.90
57108;DHT22;42987;52.916;6.542;2023-07-20T01:46:00;14.50;99.90
57108;DHT22;42987;52.916;6.542;2023-07-20T01:48:26;14.40;99.90
57108;DHT22;42987;52.916;6.542;2023-07-20T01:50:51;14.30;99.90
57108;DHT22;42987;52.916;6.542;2023-07-20T01:53:18;14.30;99.90
57108;DHT22;42987;52.916;6.542;2023-07-20T01:55:43;14.10;99.90
57108;DHT22;42987;52.916;6.542;2023-07-20T01:58:09;14.10;99.90
57108;DHT22;42987;52.916;6.542;2023-07-20T02:00:37;13.90;99.90
57108;DHT22;42987;52.916;6.542;2023-07-20T02:03:06;13.90;99.90
57108;DHT22;42987;52.916;6.542;2023-07-20T02:05:32;13.80;99.90
57108;DHT22;42987;52.916;6.542;2023-07-20T02:07:57;13.70;99.90
57108;DHT22;42987;52.916;6.542;2023-07-20T02:10:23;13.70;99.90
57108;DHT22;42987;52.916;6.542;2023-07-20T02:12:49;13.60;99.90
57108;DHT22;42987;52.916;6.542;2023-07-20T02:15:15;13.60;99.90
57108;DHT22;42987;52.916;6.542;2023-07-20T02:17:42;13.50;99.90
57108;DHT22;42987;52.916;6.542;2023-07-20T02:20:09;13.50;99.90
57108;DHT22;42987;52.916;6.542;2023-07-20T02:22:38;13.40;99.90
57108;DHT22;42987;52.916;6.542;2023-07-20T02:25:04;13.30;99.90
57108;DHT22;42987;52.916;6.542;2023-07-20T02:27:30;13.30;99.90
57108;DHT22;42987;52.916;6.542;2023-07-20T02:29:56;13.20;99.90
57108;DHT22;42987;52.916;6.542;2023-07-20T02:32:22;13.30;99.90
57108;DHT22;42987;52.916;6.542;2023-07-20T02:34:48;13.20;99.90
57108;DHT22;42987;52.916;6.542;2023-07-20T02:37:13;13.20;99.90
57108;DHT22;42987;52.916;6.542;2023-07-20T02:39:39;13.10;99.90
57108;DHT22;42987;52.916;6.542;2023-07-20T02:42:05;13.10;99.90
57108;DHT22;42987;52.916;6.542;2023-07-20T02:44:31;13.10;99.90
57108;DHT22;42987;52.916;6.542;2023-07-20T02:46:57;13.10;99.90
57108;DHT22;42987;52.916;6.542;2023-07-20T02:49:23;13.10;99.90
57108;DHT22;42987;52.916;6.542;2023-07-20T02:51:48;13.10;99.90
57108;DHT22;42987;52.916;6.542;2023-07-20T02:54:15;13.00;99.90
57108;DHT22;42987;52.916;6.542;2023-07-20T02:56:41;13.00;99.90
57108;DHT22;42987;52.916;6.542;2023-07-20T02:59:06;12.90;99.90
57108;DHT22;42987;52.916;6.542;2023-07-20T03:01:32;12.90;99.90
57108;DHT22;42987;52.916;6.542;2023-07-20T03:03:58;12.90;99.90
57108;DHT22;42987;52.916;6.542;2023-07-20T03:06:24;12.90;99.90
57108;DHT22;42987;52.916;6.542;2023-07-20T03:08:50;12.90;99.90
57108;DHT22;42987;52.916;6.542;2023-07-20T03:11:20;12.80;99.90
57108;DHT22;42987;52.916;6.542;2023-07-20T03:13:46;12.80;99.90
57108;DHT22;42987;52.916;6.542;2023-07-20T03:16:13;12.80;99.90
57108;DHT22;42987;52.916;6.542;2023-07-20T03:18:41;12.80;99.90
57108;DHT22;42987;52.916;6.542;2023-07-20T03:21:08;12.80;99.90
57108;DHT22;42987;52.916;6.542;2023-07-20T03:23:37;12.70;99.90
57108;DHT22;42987;52.916;6.542;2023-07-20T03:26:03;12.70;99.90
57108;DHT22;42987;52.916;6.542;2023-07-20T03:28:29;12.70;99.90
57108;DHT22;42987;52.916;6.542;2023-07-20T03:30:56;12.70;99.90
57108;DHT22;42987;52.916;6.542;2023-07-20T03:33:24;12.60;99.90
57108;DHT22;42987;52.916;6.542;2023-07-20T03:35:50;12.60;99.90
57108;DHT22;42987;52.916;6.542;2023-07-20T03:38:16;12.50;99.90
57108;DHT22;42987;52.916;6.542;2023-07-20T03:40:59;12.50;99.90
57108;DHT22;42987;52.916;6.542;2023-07-20T03:43:26;12.50;99.90
57108;DHT22;42987;52.916;6.542;2023-07-20T03:45:53;12.40;99.90
57108;DHT22;42987;52.916;6.542;2023-07-20T03:48:21;12.40;99.90
57108;DHT22;42987;52.916;6.542;2023-07-20T03:50:49;12.40;99.90
57108;DHT22;42987;52.916;6.542;2023-07-20T03:53:15;12.40;99.90
57108;DHT22;42987;52.916;6.542;2023-07-20T03:55:44;12.40;99.90
57108;DHT22;42987;52.916;6.542;2023-07-20T03:58:12;12.30;99.90
57108;DHT22;42987;52.916;6.542;2023-07-20T04:00:38;12.40;99.90
57108;DHT22;42987;52.916;6.542;2023-07-20T04:03:04;12.30;99.90
57108;DHT22;42987;52.916;6.542;2023-07-20T04:05:30;12.40;99.90
57108;DHT22;42987;52.916;6.542;2023-07-20T04:07:55;12.40;99.90
57108;DHT22;42987;52.916;6.542;2023-07-20T04:10:21;12.30;99.90
57108;DHT22;42987;52.916;6.542;2023-07-20T04:12:47;12.30;99.90
57108;DHT22;42987;52.916;6.542;2023-07-20T04:15:14;12.30;99.90
57108;DHT22;42987;52.916;6.542;2023-07-20T04:17:40;12.30;99.90
57108;DHT22;42987;52.916;6.542;2023-07-20T04:20:07;12.20;99.90
57108;DHT22;42987;52.916;6.542;2023-07-20T04:22:33;12.20;99.90
57108;DHT22;42987;52.916;6.542;2023-07-20T04:24:59;12.20;99.90
57108;DHT22;42987;52.916;6.542;2023-07-20T04:27:25;12.10;99.90
57108;DHT22;42987;52.916;6.542;2023-07-20T04:29:51;12.10;99.90
57108;DHT22;42987;52.916;6.542;2023-07-20T04:32:17;12.10;99.90
57108;DHT22;42987;52.916;6.542;2023-07-20T04:34:43;12.20;99.90
57108;DHT22;42987;52.916;6.542;2023-07-20T04:37:08;12.20;99.90
57108;DHT22;42987;52.916;6.542;2023-07-20T04:39:34;12.20;99.90
57108;DHT22;42987;52.916;6.542;2023-07-20T04:42:00;12.20;99.90
57108;DHT22;42987;52.916;6.542;2023-07-20T04:44:26;12.30;99.90
57108;DHT22;42987;52.916;6.542;2023-07-20T04:46:51;12.30;99.90
57108;DHT22;42987;52.916;6.542;2023-07-20T04:49:17;12.30;99.90
57108;DHT22;42987;52.916;6.542;2023-07-20T04:51:43;12.30;99.90
57108;DHT22;42987;52.916;6.542;2023-07-20T04:54:08;12.40;99.90
57108;DHT22;42987;52.916;6.542;2023-07-20T04:56:34;12.40;99.90
57108;DHT22;42987;52.916;6.542;2023-07-20T04:59:00;12.50;99.90
57108;DHT22;42987;52.916;6.542;2023-07-20T05:01:26;12.50;99.90
57108;DHT22;42987;52.916;6.542;2023-07-20T05:03:54;12.50;99.90
57108;DHT22;42987;52.916;6.542;2023-07-20T05:06:20;12.60;99.90
57108;DHT22;42987;52.916;6.542;2023-07-20T05:08:46;12.60;99.90
57108;DHT22;42987;52.916;6.542;2023-07-20T05:11:12;12.60;99.90
57108;DHT22;42987;52.916;6.542;2023-07-20T05:13:40;12.60;99.90
57108;DHT22;42987;52.916;6.542;2023-07-20T05:16:06;12.70;99.90
57108;DHT22;42987;52.916;6.542;2023-07-20T05:18:32;12.70;99.90
57108;DHT22;42987;52.916;6.542;2023-07-20T05:20:58;12.70;99.90
57108;DHT22;42987;52.916;6.542;2023-07-20T05:23:26;12.70;99.90
57108;DHT22;42987;52.916;6.542;2023-07-20T05:25:57;12.80;99.90
57108;DHT22;42987;52.916;6.542;2023-07-20T05:28:26;12.80;99.90
57108;DHT22;42987;52.916;6.542;2023-07-20T05:30:53;12.90;99.90
57108;DHT22;42987;52.916;6.542;2023-07-20T05:33:19;12.90;99.90
57108;DHT22;42987;52.916;6.542;2023-07-20T05:35:45;13.00;99.90
57108;DHT22;42987;52.916;6.542;2023-07-20T05:38:11;13.00;99.90
57108;DHT22;42987;52.916;6.542;2023-07-20T05:40:41;13.10;99.90
57108;DHT22;42987;52.916;6.542;2023-07-20T05:43:11;13.10;99.90
57108;DHT22;42987;52.916;6.542;2023-07-20T05:45:37;13.20;99.90
57108;DHT22;42987;52.916;6.542;2023-07-20T05:48:03;13.20;99.90
57108;DHT22;42987;52.916;6.542;2023-07-20T05:50:29;13.30;99.90
57108;DHT22;42987;52.916;6.542;2023-07-20T05:52:54;13.40;99.90
57108;DHT22;42987;52.916;6.542;2023-07-20T05:55:20;13.40;99.90
57108;DHT22;42987;52.916;6.542;2023-07-20T05:57:46;13.50;99.90
57108;DHT22;42987;52.916;6.542;2023-07-20T06:00:14;13.50;99.90
57108;DHT22;42987;52.916;6.542;2023-07-20T06:02:40;13.60;99.90
57108;DHT22;42987;52.916;6.542;2023-07-20T06:05:09;13.70;99.90
57108;DHT22;42987;52.916;6.542;2023-07-20T06:07:40;13.70;99.90
57108;DHT22;42987;52.916;6.542;2023-07-20T06:10:06;13.80;99.90
57108;DHT22;42987;52.916;6.542;2023-07-20T06:12:32;13.90;99.90
57108;DHT22;42987;52.916;6.542;2023-07-20T06:15:03;13.90;99.90
57108;DHT22;42987;52.916;6.542;2023-07-20T06:17:29;14.00;99.90
57108;DHT22;42987;52.916;6.542;2023-07-20T06:19:54;14.10;99.90
57108;DHT22;42987;52.916;6.542;2023-07-20T06:22:20;14.10;99.90
57108;DHT22;42987;52.916;6.542;2023-07-20T06:24:46;14.20;99.90
57108;DHT22;42987;52.916;6.542;2023-07-20T06:27:12;14.20;99.90
57108;DHT22;42987;52.916;6.542;2023-07-20T06:29:38;14.30;99.90
57108;DHT22;42987;52.916;6.542;2023-07-20T06:32:05;14.30;99.90
57108;DHT22;42987;52.916;6.542;2023-07-20T06:34:31;14.40;99.90
57108;DHT22;42987;52.916;6.542;2023-07-20T06:36:56;14.50;99.90
57108;DHT22;42987;52.916;6.542;2023-07-20T06:39:22;14.60;99.90
57108;DHT22;42987;52.916;6.542;2023-07-20T06:41:48;14.70;99.90
57108;DHT22;42987;52.916;6.542;2023-07-20T06:44:14;14.70;99.90
57108;DHT22;42987;52.916;6.542;2023-07-20T06:46:39;14.90;99.90
57108;DHT22;42987;52.916;6.542;2023-07-20T06:49:06;15.00;99.90
57108;DHT22;42987;52.916;6.542;2023-07-20T06:51:33;15.10;99.90
57108;DHT22;42987;52.916;6.542;2023-07-20T06:53:59;15.20;99.90
57108;DHT22;42987;52.916;6.542;2023-07-20T06:56:25;15.30;99.90
57108;DHT22;42987;52.916;6.542;2023-07-20T06:58:50;15.40;99.90
57108;DHT22;42987;52.916;6.542;2023-07-20T07:01:16;15.50;99.90
57108;DHT22;42987;52.916;6.542;2023-07-20T07:03:42;15.60;99.90
57108;DHT22;42987;52.916;6.542;2023-07-20T07:06:09;15.70;99.90
57108;DHT22;42987;52.916;6.542;2023-07-20T07:08:35;15.80;99.90
57108;DHT22;42987;52.916;6.542;2023-07-20T07:11:04;15.90;99.90
57108;DHT22;42987;52.916;6.542;2023-07-20T07:13:31;16.00;99.90
57108;DHT22;42987;52.916;6.542;2023-07-20T07:15:56;16.10;99.90
57108;DHT22;42987;52.916;6.542;2023-07-20T07:18:22;16.30;99.90
57108;DHT22;42987;52.916;6.542;2023-07-20T07:20:51;16.30;99.90
57108;DHT22;42987;52.916;6.542;2023-07-20T07:23:17;16.40;99.90
57108;DHT22;42987;52.916;6.542;2023-07-20T07:25:43;16.50;99.90
57108;DHT22;42987;52.916;6.542;2023-07-20T07:28:09;16.60;99.90
57108;DHT22;42987;52.916;6.542;2023-07-20T07:30:35;16.70;99.90
57108;DHT22;42987;52.916;6.542;2023-07-20T07:33:01;16.70;99.90
57108;DHT22;42987;52.916;6.542;2023-07-20T07:35:27;16.70;99.90
57108;DHT22;42987;52.916;6.542;2023-07-20T07:37:53;16.80;99.90
57108;DHT22;42987;52.916;6.542;2023-07-20T07:40:18;16.70;99.90
57108;DHT22;42987;52.916;6.542;2023-07-20T07:42:44;16.80;99.90
57108;DHT22;42987;52.916;6.542;2023-07-20T07:45:10;16.90;99.90
57108;DHT22;42987;52.916;6.542;2023-07-20T07:47:35;16.90;99.90
57108;DHT22;42987;52.916;6.542;2023-07-20T07:50:02;16.90;99.90
57108;DHT22;42987;52.916;6.542;2023-07-20T07:52:31;17.00;99.90
57108;DHT22;42987;52.916;6.542;2023-07-20T07:54:57;17.10;99.90
57108;DHT22;42987;52.916;6.542;2023-07-20T07:57:23;17.30;99.90
57108;DHT22;42987;52.916;6.542;2023-07-20T07:59:49;17.50;99.90
57108;DHT22;42987;52.916;6.542;2023-07-20T08:02:14;17.60;99.90
57108;DHT22;42987;52.916;6.542;2023-07-20T08:04:40;17.70;99.90
57108;DHT22;42987;52.916;6.542;2023-07-20T08:07:06;17.80;99.90
57108;DHT22;42987;52.916;6.542;2023-07-20T08:09:32;17.80;99.90
57108;DHT22;42987;52.916;6.542;2023-07-20T08:11:58;18.00;99.90
57108;DHT22;42987;52.916;6.542;2023-07-20T08:14:24;18.00;99.90
57108;DHT22;42987;52.916;6.542;2023-07-20T08:16:50;18.20;99.90
57108;DHT22;42987;52.916;6.542;2023-07-20T08:19:16;18.30;99.90
57108;DHT22;42987;52.916;6.542;2023-07-20T08:21:41;18.50;99.90
57108;DHT22;42987;52.916;6.542;2023-07-20T08:24:07;18.60;99.90
57108;DHT22;42987;52.916;6.542;2023-07-20T08:26:33;18.80;99.90
57108;DHT22;42987;52.916;6.542;2023-07-20T08:28:59;18.80;99.90
57108;DHT22;42987;52.916;6.542;2023-07-20T08:31:24;18.70;99.90
57108;DHT22;42987;52.916;6.542;2023-07-20T08:33:50;18.70;99.90
57108;DHT22;42987;52.916;6.542;2023-07-20T08:36:16;18.90;99.90
57108;DHT22;42987;52.916;6.542;2023-07-20T08:38:42;19.00;99.90
57108;DHT22;42987;52.916;6.542;2023-07-20T08:41:11;19.10;99.90
57108;DHT22;42987;52.916;6.542;2023-07-20T08:43:38;19.30;99.90
57108;DHT22;42987;52.916;6.542;2023-07-20T08:46:10;19.30;99.90
57108;DHT22;42987;52.916;6.542;2023-07-20T08:48:36;19.40;99.90
57108;DHT22;42987;52.916;6.542;2023-07-20T08:51:04;19.60;99.90
57108;DHT22;42987;52.916;6.542;2023-07-20T08:53:31;19.80;99.90
57108;DHT22;42987;52.916;6.542;2023-07-20T08:55:58;19.80;99.90
57108;DHT22;42987;52.916;6.542;2023-07-20T08:58:28;19.80;99.90
57108;DHT22;42987;52.916;6.542;2023-07-20T09:00:54;19.80;99.90
57108;DHT22;42987;52.916;6.542;2023-07-20T09:03:21;19.90;99.90
57108;DHT22;42987;52.916;6.542;2023-07-20T09:05:47;20.00;99.90
57108;DHT22;42987;52.916;6.542;2023-07-20T09:08:12;19.90;99.90
57108;DHT22;42987;52.916;6.542;2023-07-20T09:10:39;19.80;99.90
57108;DHT22;42987;52.916;6.542;2023-07-20T09:13:04;19.80;99.90
57108;DHT22;42987;52.916;6.542;2023-07-20T09:15:30;19.90;99.90
57108;DHT22;42987;52.916;6.542;2023-07-20T09:17:56;20.00;99.90
57108;DHT22;42987;52.916;6.542;2023-07-20T09:20:22;20.00;99.90
57108;DHT22;42987;52.916;6.542;2023-07-20T09:22:48;19.90;99.90
57108;DHT22;42987;52.916;6.542;2023-07-20T09:25:17;20.00;99.90
57108;DHT22;42987;52.916;6.542;2023-07-20T09:27:47;20.20;99.90
57108;DHT22;42987;52.916;6.542;2023-07-20T09:30:14;20.20;99.90
57108;DHT22;42987;52.916;6.542;2023-07-20T09:32:41;20.10;99.90
57108;DHT22;42987;52.916;6.542;2023-07-20T09:35:21;19.90;99.90
57108;DHT22;42987;52.916;6.542;2023-07-20T09:37:50;19.90;99.90
57108;DHT22;42987;52.916;6.542;2023-07-20T09:40:17;20.00;99.90
57108;DHT22;42987;52.916;6.542;2023-07-20T09:42:43;20.10;99.90
57108;DHT22;42987;52.916;6.542;2023-07-20T09:45:09;20.30;99.90
57108;DHT22;42987;52.916;6.542;2023-07-20T09:47:37;20.50;99.90
57108;DHT22;42987;52.916;6.542;2023-07-20T09:50:07;20.60;99.90
57108;DHT22;42987;52.916;6.542;2023-07-20T09:52:40;20.70;99.90
57108;DHT22;42987;52.916;6.542;2023-07-20T09:55:09;20.70;99.90
57108;DHT22;42987;52.916;6.542;2023-07-20T09:57:37;20.80;99.90
57108;DHT22;42987;52.916;6.542;2023-07-20T10:00:07;20.90;99.90
57108;DHT22;42987;52.916;6.542;2023-07-20T10:02:43;20.90;99.90
57108;DHT22;42987;52.916;6.542;2023-07-20T10:05:13;20.90;99.90
57108;DHT22;42987;52.916;6.542;2023-07-20T10:07:50;20.90;99.90
57108;DHT22;42987;52.916;6.542;2023-07-20T10:10:17;21.00;99.90
57108;DHT22;42987;52.916;6.542;2023-07-20T10:12:48;21.10;98.80
57108;DHT22;42987;52.916;6.542;2023-07-20T10:15:24;21.00;99.90
57108;DHT22;42987;52.916;6.542;2023-07-20T10:18:07;21.10;99.90
57108;DHT22;42987;52.916;6.542;2023-07-20T10:20:36;21.10;98.40
57108;DHT22;42987;52.916;6.542;2023-07-20T10:23:05;21.20;98.30
57108;DHT22;42987;52.916;6.542;2023-07-20T10:25:31;21.20;97.40
57108;DHT22;42987;52.916;6.542;2023-07-20T10:27:58;21.40;97.70
57108;DHT22;42987;52.916;6.542;2023-07-20T10:30:25;21.60;98.00
57108;DHT22;42987;52.916;6.542;2023-07-20T10:32:52;21.80;95.10
57108;DHT22;42987;52.916;6.542;2023-07-20T10:35:18;21.70;92.80
57108;DHT22;42987;52.916;6.542;2023-07-20T10:37:54;21.80;93.00
57108;DHT22;42987;52.916;6.542;2023-07-20T10:43:01;21.70;93.80
57108;DHT22;42987;52.916;6.542;2023-07-20T10:45:34;21.90;94.80
57108;DHT22;42987;52.916;6.542;2023-07-20T10:50:41;22.30;93.70
57108;DHT22;42987;52.916;6.542;2023-07-20T10:55:39;22.30;92.40
57108;DHT22;42987;52.916;6.542;2023-07-20T10:58:13;22.20;94.30
57108;DHT22;42987;52.916;6.542;2023-07-20T11:01:01;22.20;94.20
57108;DHT22;42987;52.916;6.542;2023-07-20T11:03:32;22.30;93.80
57108;DHT22;42987;52.916;6.542;2023-07-20T11:05:58;22.20;90.30
57108;DHT22;42987;52.916;6.542;2023-07-20T11:08:41;21.90;91.70
57108;DHT22;42987;52.916;6.542;2023-07-20T11:11:29;21.70;92.00
57108;DHT22;42987;52.916;6.542;2023-07-20T11:16:41;21.50;91.40
57108;DHT22;42987;52.916;6.542;2023-07-20T11:19:19;21.40;91.50
57108;DHT22;42987;52.916;6.542;2023-07-20T11:21:46;21.40;91.70
57108;DHT22;42987;52.916;6.542;2023-07-20T11:24:13;21.40;93.60
57108;DHT22;42987;52.916;6.542;2023-07-20T11:26:52;21.50;92.10
57108;DHT22;42987;52.916;6.542;2023-07-20T11:29:23;21.50;92.00
57108;DHT22;42987;52.916;6.542;2023-07-20T11:31:51;21.50;92.50
57108;DHT22;42987;52.916;6.542;2023-07-20T11:34:18;21.50;93.50
57108;DHT22;42987;52.916;6.542;2023-07-20T11:36:50;21.40;92.60
57108;DHT22;42987;52.916;6.542;2023-07-20T11:39:17;21.20;92.70
57108;DHT22;42987;52.916;6.542;2023-07-20T11:41:48;21.20;94.30
57108;DHT22;42987;52.916;6.542;2023-07-20T11:44:19;21.10;94.80
57108;DHT22;42987;52.916;6.542;2023-07-20T11:46:44;21.10;95.00
57108;DHT22;42987;52.916;6.542;2023-07-20T11:49:11;21.10;93.60
57108;DHT22;42987;52.916;6.542;2023-07-20T11:51:39;21.00;93.70
57108;DHT22;42987;52.916;6.542;2023-07-20T11:54:06;21.00;94.90
57108;DHT22;42987;52.916;6.542;2023-07-20T11:56:32;21.00;93.50
57108;DHT22;42987;52.916;6.542;2023-07-20T11:58:58;20.90;92.70
57108;DHT22;42987;52.916;6.542;2023-07-20T12:01:27;20.80;94.70
57108;DHT22;42987;52.916;6.542;2023-07-20T12:04:01;20.70;94.80
57108;DHT22;42987;52.916;6.542;2023-07-20T12:06:30;20.70;96.10
57108;DHT22;42987;52.916;6.542;2023-07-20T12:08:59;20.60;96.80
57108;DHT22;42987;52.916;6.542;2023-07-20T12:11:35;20.60;97.10
57108;DHT22;42987;52.916;6.542;2023-07-20T12:14:02;20.50;96.50
57108;DHT22;42987;52.916;6.542;2023-07-20T12:16:29;20.40;97.50
57108;DHT22;42987;52.916;6.542;2023-07-20T12:19:06;20.50;97.50
57108;DHT22;42987;52.916;6.542;2023-07-20T12:21:34;20.60;97.70
57108;DHT22;42987;52.916;6.542;2023-07-20T12:24:02;20.70;98.50
57108;DHT22;42987;52.916;6.542;2023-07-20T12:26:29;20.70;97.50
57108;DHT22;42987;52.916;6.542;2023-07-20T12:28:56;20.90;98.40
57108;DHT22;42987;52.916;6.542;2023-07-20T12:31:22;21.10;98.00
57108;DHT22;42987;52.916;6.542;2023-07-20T12:33:53;21.10;96.00
57108;DHT22;42987;52.916;6.542;2023-07-20T12:36:21;21.10;96.20
57108;DHT22;42987;52.916;6.542;2023-07-20T12:38:47;21.00;97.50
57108;DHT22;42987;52.916;6.542;2023-07-20T12:41:13;20.90;97.70
57108;DHT22;42987;52.916;6.542;2023-07-20T12:43:40;20.90;98.00
57108;DHT22;42987;52.916;6.542;2023-07-20T12:46:06;21.00;98.80
57108;DHT22;42987;52.916;6.542;2023-07-20T12:48:32;21.10;97.20
57108;DHT22;42987;52.916;6.542;2023-07-20T12:50:58;21.20;97.30
57108;DHT22;42987;52.916;6.542;2023-07-20T12:53:24;21.20;95.10
57108;DHT22;42987;52.916;6.542;2023-07-20T12:55:50;21.10;94.90
57108;DHT22;42987;52.916;6.542;2023-07-20T12:58:16;21.00;95.70
57108;DHT22;42987;52.916;6.542;2023-07-20T13:00:41;20.90;95.30
57108;DHT22;42987;52.916;6.542;2023-07-20T13:03:10;20.70;95.20
57108;DHT22;42987;52.916;6.542;2023-07-20T13:05:36;20.60;95.80
57108;DHT22;42987;52.916;6.542;2023-07-20T13:08:02;20.40;95.10
57108;DHT22;42987;52.916;6.542;2023-07-20T13:10:28;20.20;94.50
57108;DHT22;42987;52.916;6.542;2023-07-20T13:12:54;20.10;94.80
57108;DHT22;42987;52.916;6.542;2023-07-20T13:15:20;19.90;96.50
57108;DHT22;42987;52.916;6.542;2023-07-20T13:17:46;19.80;97.30
57108;DHT22;42987;52.916;6.542;2023-07-20T13:20:12;19.70;96.60
57108;DHT22;42987;52.916;6.542;2023-07-20T13:22:40;19.60;97.60
57108;DHT22;42987;52.916;6.542;2023-07-20T13:25:07;19.50;97.90
57108;DHT22;42987;52.916;6.542;2023-07-20T13:27:36;19.40;99.20
57108;DHT22;42987;52.916;6.542;2023-07-20T13:30:02;19.30;99.80
57108;DHT22;42987;52.916;6.542;2023-07-20T13:32:33;19.20;99.90
57108;DHT22;42987;52.916;6.542;2023-07-20T13:35:00;19.20;99.90
57108;DHT22;42987;52.916;6.542;2023-07-20T13:37:26;19.10;99.90
57108;DHT22;42987;52.916;6.542;2023-07-20T13:39:52;19.00;99.90
57108;DHT22;42987;52.916;6.542;2023-07-20T13:42:18;19.00;99.90
57108;DHT22;42987;52.916;6.542;2023-07-20T13:44:44;19.00;99.90
57108;DHT22;42987;52.916;6.542;2023-07-20T13:47:09;19.00;99.90
57108;DHT22;42987;52.916;6.542;2023-07-20T13:49:35;19.10;99.90
57108;DHT22;42987;52.916;6.542;2023-07-20T13:52:01;19.20;99.90
57108;DHT22;42987;52.916;6.542;2023-07-20T13:54:27;19.40;99.90
57108;DHT22;42987;52.916;6.542;2023-07-20T13:56:53;19.60;99.90
57108;DHT22;42987;52.916;6.542;2023-07-20T13:59:19;19.90;99.90
57108;DHT22;42987;52.916;6.542;2023-07-20T14:01:45;20.00;99.90
57108;DHT22;42987;52.916;6.542;2023-07-20T14:04:10;20.30;99.80
57108;DHT22;42987;52.916;6.542;2023-07-20T14:06:36;20.40;99.70
57108;DHT22;42987;52.916;6.542;2023-07-20T14:09:02;20.50;99.90
57108;DHT22;42987;52.916;6.542;2023-07-20T14:11:29;20.70;99.00
57108;DHT22;42987;52.916;6.542;2023-07-20T14:13:55;20.70;99.90
57108;DHT22;42987;52.916;6.542;2023-07-20T14:16:24;20.70;99.60
57108;DHT22;42987;52.916;6.542;2023-07-20T14:18:51;20.60;99.10
57108;DHT22;42987;52.916;6.542;2023-07-20T14:21:18;20.60;99.20
57108;DHT22;42987;52.916;6.542;2023-07-20T14:23:49;20.50;99.10
57108;DHT22;42987;52.916;6.542;2023-07-20T14:26:19;20.50;99.90
57108;DHT22;42987;52.916;6.542;2023-07-20T14:28:44;20.50;99.80
57108;DHT22;42987;52.916;6.542;2023-07-20T14:31:11;20.70;99.30
57108;DHT22;42987;52.916;6.542;2023-07-20T14:33:36;21.00;97.90
57108;DHT22;42987;52.916;6.542;2023-07-20T14:36:03;21.20;97.00
57108;DHT22;42987;52.916;6.542;2023-07-20T14:38:30;21.30;94.90
57108;DHT22;42987;52.916;6.542;2023-07-20T14:40:56;21.30;94.10
57108;DHT22;42987;52.916;6.542;2023-07-20T14:43:22;21.20;95.30
57108;DHT22;42987;52.916;6.542;2023-07-20T14:45:48;21.20;95.00
57108;DHT22;42987;52.916;6.542;2023-07-20T14:48:13;21.00;95.30
57108;DHT22;42987;52.916;6.542;2023-07-20T14:50:39;20.90;96.10
57108;DHT22;42987;52.916;6.542;2023-07-20T14:53:05;20.70;95.20
57108;DHT22;42987;52.916;6.542;2023-07-20T14:55:31;20.60;95.90
57108;DHT22;42987;52.916;6.542;2023-07-20T14:57:57;20.50;96.60
57108;DHT22;42987;52.916;6.542;2023-07-20T15:00:22;20.40;97.80
57108;DHT22;42987;52.916;6.542;2023-07-20T15:02:49;20.30;98.10
57108;DHT22;42987;52.916;6.542;2023-07-20T15:05:22;20.30;96.50
57108;DHT22;42987;52.916;6.542;2023-07-20T15:07:48;20.30;96.80
57108;DHT22;42987;52.916;6.542;2023-07-20T15:10:15;20.40;97.20
57108;DHT22;42987;52.916;6.542;2023-07-20T15:12:41;20.60;95.30
57108;DHT22;42987;52.916;6.542;2023-07-20T15:15:12;20.70;95.50
57108;DHT22;42987;52.916;6.542;2023-07-20T15:17:40;20.80;94.20
57108;DHT22;42987;52.916;6.542;2023-07-20T15:20:08;20.70;95.00
57108;DHT22;42987;52.916;6.542;2023-07-20T15:22:35;20.70;95.70
57108;DHT22;42987;52.916;6.542;2023-07-20T15:25:08;20.60;96.20
57108;DHT22;42987;52.916;6.542;2023-07-20T15:27:34;20.50;96.80
57108;DHT22;42987;52.916;6.542;2023-07-20T15:30:00;20.50;98.00
57108;DHT22;42987;52.916;6.542;2023-07-20T15:32:28;20.50;98.60
57108;DHT22;42987;52.916;6.542;2023-07-20T15:34:54;20.70;99.70
57108;DHT22;42987;52.916;6.542;2023-07-20T15:37:20;20.90;97.60
57108;DHT22;42987;52.916;6.542;2023-07-20T15:39:49;21.00;94.80
57108;DHT22;42987;52.916;6.542;2023-07-20T15:42:15;21.20;94.60
57108;DHT22;42987;52.916;6.542;2023-07-20T15:44:41;21.30;92.70
57108;DHT22;42987;52.916;6.542;2023-07-20T15:47:10;21.40;92.00
57108;DHT22;42987;52.916;6.542;2023-07-20T15:49:36;21.40;91.80
57108;DHT22;42987;52.916;6.542;2023-07-20T15:52:02;21.30;91.00